Wainwright, AK

4:45 AM AKDT on October 17, 2017 (GMT -0800)
Wainwright

Weather History for PAWI - June, 2014

Change the Weather History Date:

Tuesday, June 17, 2014

  Actual Average (PABR) Record (PABR)
Temperature  
Mean Temperature 34 °F -  
Max Temperature 36 °F 39 °F 63 °F (1961)
Min Temperature 32 °F 31 °F 22 °F (1960)
Degree Days  
Heating Degree Days 30    
Moisture  
Dew Point 31 °F    
Average Humidity 90    
Maximum Humidity 100    
Minimum Humidity 81    
Precipitation  
Precipitation 0.00 in - - ()
Sea Level Pressure  
Sea Level Pressure 29.58 in    
Wind  
Wind Speed 9 mph (NNW)    
Max Wind Speed 13 mph    
Max Gust Speed -    
Visibility 3 miles    
Events Fog , Rain    
Averages and records for this station are not official NWS values.
T = Trace of Precipitation, MM = Missing Value Source: NWS Daily Summary

Daily Weather History Graph

Daily Weather History Graph

Search for Another Location

Airport or City:

Trip Planner

Search our weather history database for the weather conditions in past years. The results will help you decide how hot, cold, wet, or windy it might be!

Date:

Astronomy

Dec. 31, 1969 Rise Set
Actual Time Sun does not rise Sun does not rise
Civil Twilight Sun does not rise Sun does not rise
Nautical Twilight Sun does not rise Sun does not rise
Astronomical Twilight Sun does not rise Sun does not rise
Moon 2:28 AM AKDT 11:34 AM AKDT
Length of Visible Light 24h 00m
Length of Day
24h 00m
Waning Gibbous, 72% of the Moon is Illuminated
Jun 17
Waning Gibbous
Jun 19
Last Quarter
Jun 27
New
Jul 5
First Quarter
Jul 12
Full

Hourly Weather History & Observations

Time (AKDT) Temp. Windchill Dew Point Humidity Pressure Visibility Wind Dir Wind Speed Gust Speed Precip Events Conditions
12:04 AM 33.8 °F 27.0 °F 32.0 °F 93% 29.58 in 10.0 mi WNW 8.1 mph - N/A   Mostly Cloudy
12:53 AM 34.0 °F 26.6 °F 32.0 °F 92% 29.58 in 3.0 mi NNW 9.2 mph - N/A   Overcast
12:55 AM 33.8 °F 25.8 °F 32.0 °F 93% 29.57 in 1.8 mi NNW 10.4 mph - N/A   Overcast
1:30 AM 33.8 °F 28.6 °F 32.0 °F 93% 29.59 in 0.8 mi North 5.8 mph - N/A   Overcast
1:40 AM 33.8 °F 27.7 °F 32.0 °F 93% 29.58 in 1.8 mi NNW 6.9 mph - N/A   Overcast
1:46 AM 33.8 °F 27.7 °F 32.0 °F 93% 29.58 in 2.0 mi NNW 6.9 mph - 0.00 in   Overcast
1:53 AM 33.1 °F 28.7 °F 32.0 °F 96% 29.59 in 4.0 mi NW 4.6 mph - 0.00 in Rain Light Rain
3:32 AM 33.8 °F 27.7 °F 32.0 °F 93% 29.57 in 10.0 mi NW 6.9 mph - 0.00 in   Overcast
3:53 AM 34.0 °F 28.0 °F 32.0 °F 92% 29.57 in 10.0 mi NW 6.9 mph - 0.00 in   Overcast
4:38 AM 33.8 °F 25.8 °F 30.2 °F 87% 29.56 in 1.8 mi WNW 10.4 mph - N/A   Overcast
4:53 AM 33.1 °F 24.9 °F 30.9 °F 92% 29.57 in 1.5 mi WNW 10.4 mph - N/A   Overcast
5:13 AM 33.8 °F 25.8 °F 30.2 °F 87% 29.56 in 2.0 mi NW 10.4 mph - N/A   Overcast
5:20 AM 33.8 °F 25.3 °F 30.2 °F 87% 29.56 in 8.0 mi NW 11.5 mph - N/A   Overcast
5:37 AM 33.8 °F 27.7 °F 30.2 °F 87% 29.57 in 1.8 mi NW 6.9 mph - N/A   Overcast
5:53 AM 33.1 °F 26.1 °F 30.9 °F 92% 29.57 in 0.2 mi NW 8.1 mph - N/A Fog Fog
6:53 AM 33.1 °F 25.5 °F 30.9 °F 92% 29.56 in 0.2 mi NW 9.2 mph - N/A Fog Fog
7:53 AM 33.1 °F 26.1 °F 30.9 °F 92% 29.55 in 0.2 mi NW 8.1 mph - N/A Fog Fog
8:53 AM 33.1 °F 26.1 °F 32.0 °F 96% 29.55 in 0.2 mi NNW 8.1 mph - N/A Fog Fog
9:53 AM 34.0 °F 26.6 °F 32.0 °F 92% 29.55 in 0.5 mi WNW 9.2 mph - N/A Fog Fog
10:23 AM 33.8 °F 26.4 °F 33.8 °F 100% 29.55 in 1.0 mi NW 9.2 mph - N/A   Overcast
10:34 AM 33.8 °F 27.0 °F 33.8 °F 100% 29.55 in 3.0 mi NW 8.1 mph - N/A   Overcast
10:53 AM 34.0 °F 26.6 °F 32.0 °F 92% 29.56 in 1.2 mi WNW 9.2 mph - N/A   Overcast
11:18 AM 33.8 °F 27.0 °F 32.0 °F 93% 29.55 in 3.0 mi NW 8.1 mph - N/A   Overcast
11:53 AM 35.1 °F 27.4 °F 33.1 °F 92% 29.56 in 9.0 mi NW 10.4 mph - N/A   Overcast
12:07 PM 33.8 °F 26.4 °F 32.0 °F 93% 29.56 in 1.8 mi NW 9.2 mph - N/A   Overcast
12:35 PM 33.8 °F 26.4 °F 32.0 °F 93% 29.56 in 0.8 mi NW 9.2 mph - N/A   Overcast
12:44 PM 35.6 °F 28.6 °F 33.8 °F 93% 29.56 in 1.5 mi NW 9.2 mph - N/A   Overcast
12:53 PM 34.0 °F 26.6 °F 32.0 °F 92% 29.56 in 1.0 mi NW 9.2 mph - N/A   Overcast
1:00 PM 33.8 °F 25.3 °F 32.0 °F 93% 29.56 in 0.5 mi NW 11.5 mph - N/A Fog Fog
1:16 PM 35.6 °F 28.0 °F 32.0 °F 87% 29.55 in 6.0 mi NW 10.4 mph - N/A   Overcast
1:53 PM 35.1 °F 27.4 °F 32.0 °F 89% 29.57 in 6.0 mi NNW 10.4 mph - N/A   Overcast
2:11 PM 35.6 °F 28.6 °F 32.0 °F 87% 29.57 in 10.0 mi NNW 9.2 mph - N/A   Overcast
2:49 PM 35.6 °F 28.6 °F 32.0 °F 87% 29.56 in 1.8 mi NNW 9.2 mph - N/A   Overcast
2:50 PM 35.1 °F 27.9 °F 32.0 °F 89% 29.56 in 1.8 mi NNW 9.2 mph - N/A   Overcast
3:02 PM 33.8 °F 27.0 °F 32.0 °F 93% 29.56 in 3.0 mi NNW 8.1 mph - N/A   Overcast
3:53 PM 36.0 °F 29.0 °F 32.0 °F 86% 29.57 in 3.0 mi NNW 9.2 mph - N/A   Overcast
4:09 PM 35.6 °F 28.0 °F 32.0 °F 87% 29.56 in 3.0 mi NNW 10.4 mph - N/A   Overcast
4:53 PM 36.0 °F 28.5 °F 32.0 °F 86% 29.57 in 8.0 mi NW 10.4 mph - N/A   Overcast
5:06 PM 35.6 °F 28.6 °F 33.8 °F 93% 29.57 in 1.8 mi NW 9.2 mph - N/A   Overcast
5:35 PM 35.6 °F 27.5 °F 32.0 °F 87% 29.57 in 0.8 mi NW 11.5 mph - N/A   Overcast
5:53 PM 35.1 °F 27.4 °F 32.0 °F 89% 29.57 in 1.2 mi NNW 10.4 mph - N/A   Overcast
6:53 PM 34.0 °F 25.5 °F 30.9 °F 89% 29.58 in 8.0 mi NNW 11.5 mph - N/A   Overcast
7:07 PM 33.8 °F 24.8 °F 30.2 °F 87% 29.58 in 1.8 mi NNW 12.7 mph - N/A   Overcast
7:25 PM 35.6 °F 27.1 °F 32.0 °F 87% 29.58 in 2.5 mi NNW 12.7 mph - N/A   Overcast
7:41 PM 35.6 °F 27.5 °F 30.2 °F 81% 29.58 in 3.0 mi NNW 11.5 mph - N/A   Overcast
8:20 PM 33.8 °F 25.8 °F 30.2 °F 87% 29.58 in 1.5 mi NNW 10.4 mph - N/A   Overcast
8:42 PM 33.8 °F 27.0 °F 30.2 °F 87% 29.59 in 3.0 mi North 8.1 mph - N/A   Overcast
8:53 PM 34.0 °F 26.6 °F 30.9 °F 89% 29.60 in 2.0 mi North 9.2 mph - N/A   Overcast
9:03 PM 33.8 °F 27.0 °F 30.2 °F 87% 29.59 in 1.5 mi North 8.1 mph - N/A   Overcast
9:11 PM 33.8 °F 25.8 °F 30.2 °F 87% 29.59 in 0.5 mi NNW 10.4 mph - N/A Fog Fog
9:17 PM 33.8 °F 26.4 °F 30.2 °F 87% 29.59 in 2.5 mi North 9.2 mph - N/A   Overcast
9:24 PM 33.8 °F 26.4 °F 30.2 °F 87% 29.59 in 4.0 mi NNW 9.2 mph - N/A   Overcast
9:39 PM 33.8 °F 26.4 °F 30.2 °F 87% 29.59 in 2.0 mi North 9.2 mph - N/A   Overcast
9:43 PM 33.8 °F 27.0 °F 30.2 °F 87% 29.60 in 0.8 mi North 8.1 mph - N/A   Overcast
9:53 PM 33.1 °F 25.5 °F 30.9 °F 92% 29.60 in 0.2 mi North 9.2 mph - N/A Fog Fog
10:05 PM 33.8 °F 27.0 °F 30.2 °F 87% 29.60 in 2.5 mi North 8.1 mph - N/A   Overcast
10:27 PM 33.8 °F 26.4 °F 30.2 °F 87% 29.60 in 3.0 mi North 9.2 mph - N/A   Overcast
10:29 PM 33.8 °F 27.0 °F 30.2 °F 87% 29.60 in 1.8 mi North 8.1 mph - N/A   Overcast
10:38 PM 33.8 °F 26.4 °F 30.2 °F 87% 29.61 in 0.5 mi NNE 9.2 mph - N/A Fog Fog
10:45 PM 33.8 °F 27.7 °F 30.2 °F 87% 29.61 in 3.0 mi NNE 6.9 mph - N/A   Overcast
10:49 PM 33.8 °F 27.7 °F 30.2 °F 87% 29.60 in 1.5 mi North 6.9 mph - N/A   Overcast
10:53 PM 33.1 °F 26.1 °F 30.9 °F 92% 29.61 in 0.8 mi NNW 8.1 mph - N/A   Overcast
11:53 PM 32.0 °F 24.8 °F 30.0 °F 92% 29.62 in 3.0 mi NNW 8.1 mph - N/A   Overcast